Time;durP1;ratioP1;P1;durP2;ratioP2;P2;SDS_P1;SDS_P2;PMS_P1;PMS_P2;Temp;Humidity;BMP_temperature;BMP_pressure;BME280_temperature;BME280_humidity;BME280_pressure;Samples;Min_cycle;Max_cycle;Signal;HPM_P1;HPM_P2
2024/02/10 00:00:19;;;;;;;20.37;11.67;;;10.70;99.90;;;;;;5094503;28;20222;-74
2024/02/10 00:02:51;;;;;;;16.40;11.47;;;10.70;99.90;;;;;;5094747;28;20235;-74
2024/02/10 00:05:18;;;;;;;14.50;10.27;;;10.70;99.90;;;;;;5094699;28;20280;-74
2024/02/10 00:07:51;;;;;;;16.07;10.57;;;10.70;99.90;;;;;;5094495;28;20192;-75
2024/02/10 00:10:17;;;;;;;18.87;11.13;;;10.70;99.90;;;;;;5054116;28;20209;-74
2024/02/10 00:12:42;;;;;;;15.40;9.80;;;10.70;99.90;;;;;;5071652;28;20202;-74
2024/02/10 00:15:10;;;;;;;18.07;10.07;;;10.70;99.90;;;;;;5074043;28;20177;-75
2024/02/10 00:17:38;;;;;;;12.17;10.57;;;10.70;99.90;;;;;;5071441;28;20188;-74
2024/02/10 00:20:04;;;;;;;14.27;10.40;;;10.70;99.90;;;;;;5073899;28;20170;-74
2024/02/10 00:22:30;;;;;;;11.27;9.90;;;10.70;99.90;;;;;;5073858;28;20253;-75
2024/02/10 00:24:57;;;;;;;17.40;11.07;;;10.70;99.90;;;;;;5073926;28;20275;-74
2024/02/10 00:27:22;;;;;;;16.17;11.17;;;10.80;99.90;;;;;;5089972;28;20184;-74
2024/02/10 00:29:48;;;;;;;15.00;11.27;;;10.80;99.90;;;;;;5094075;28;20555;-74
2024/02/10 00:32:14;;;;;;;16.37;10.30;;;10.80;99.90;;;;;;5093885;28;20706;-74
2024/02/10 00:34:41;;;;;;;13.83;10.63;;;10.80;99.90;;;;;;5089116;28;20177;-75
2024/02/10 00:37:08;;;;;;;12.80;10.47;;;10.80;99.90;;;;;;5073781;28;20181;-74
2024/02/10 00:39:34;;;;;;;11.07;9.93;;;10.80;99.90;;;;;;5081149;28;20213;-74
2024/02/10 00:42:00;;;;;;;16.97;10.87;;;10.80;99.90;;;;;;5094571;28;20663;-74
2024/02/10 00:44:28;;;;;;;14.17;10.30;;;10.70;99.90;;;;;;5078797;28;20268;-75
2024/02/10 00:46:57;;;;;;;17.23;11.00;;;10.80;99.90;;;;;;5096915;28;20216;-75
2024/02/10 00:49:24;;;;;;;15.07;11.47;;;10.80;99.90;;;;;;5093844;28;20189;-74
2024/02/10 00:51:50;;;;;;;15.07;11.23;;;10.80;99.90;;;;;;5093423;28;20170;-74
2024/02/10 00:54:26;;;;;;;15.40;10.73;;;10.70;99.90;;;;;;5068272;28;20182;-74
2024/02/10 00:56:52;;;;;;;14.53;11.37;;;10.70;99.90;;;;;;5073321;28;20169;-74
2024/02/10 00:59:18;;;;;;;14.20;10.40;;;10.80;99.90;;;;;;5073489;28;20658;-74
2024/02/10 01:01:43;;;;;;;12.33;9.70;;;10.70;99.90;;;;;;5073238;28;20185;-74
2024/02/10 01:04:09;;;;;;;17.23;10.27;;;10.70;99.90;;;;;;5073279;28;20186;-74
2024/02/10 01:06:39;;;;;;;12.80;10.47;;;10.70;99.90;;;;;;5073359;28;20198;-74
2024/02/10 01:09:07;;;;;;;13.13;10.07;;;10.70;99.90;;;;;;5074198;28;20190;-74
2024/02/10 01:11:33;;;;;;;13.27;10.53;;;10.70;99.90;;;;;;5072942;28;20166;-74
2024/02/10 01:13:59;;;;;;;15.03;11.00;;;10.80;99.90;;;;;;5072927;28;20216;-74
2024/02/10 01:16:25;;;;;;;12.93;10.53;;;10.70;99.90;;;;;;5073044;28;20178;-74
2024/02/10 01:18:51;;;;;;;14.17;10.43;;;10.70;99.90;;;;;;5072808;28;20225;-74
2024/02/10 01:21:18;;;;;;;13.40;10.47;;;10.70;99.90;;;;;;5054621;28;20663;-74
2024/02/10 01:23:46;;;;;;;13.77;10.70;;;10.70;99.90;;;;;;5079642;28;20706;-74
2024/02/10 01:26:13;;;;;;;11.33;10.13;;;10.70;99.90;;;;;;5092827;28;20219;-75
2024/02/10 01:28:44;;;;;;;18.03;10.87;;;10.80;99.90;;;;;;5092785;28;20209;-75
2024/02/10 01:31:12;;;;;;;12.50;10.50;;;10.80;99.90;;;;;;5092631;28;20223;-74
2024/02/10 01:33:38;;;;;;;14.00;10.87;;;10.80;99.90;;;;;;5092919;28;20161;-74
2024/02/10 01:36:04;;;;;;;13.30;10.27;;;10.70;99.90;;;;;;5092591;28;20174;-74
2024/02/10 01:38:30;;;;;;;17.20;11.43;;;10.70;99.90;;;;;;5073649;28;20576;-74
2024/02/10 01:40:56;;;;;;;13.73;11.20;;;10.70;99.90;;;;;;5071826;28;20178;-74
2024/02/10 01:43:22;;;;;;;16.13;11.47;;;10.80;99.90;;;;;;5072445;28;20173;-74
2024/02/10 01:45:51;;;;;;;12.27;10.70;;;10.80;99.90;;;;;;5073065;28;20210;-74
2024/02/10 01:48:19;;;;;;;14.57;11.70;;;10.80;99.90;;;;;;5092513;28;20196;-74
2024/02/10 01:50:46;;;;;;;15.60;11.50;;;10.70;99.90;;;;;;5092168;28;20166;-74
2024/02/10 01:53:12;;;;;;;11.27;9.87;;;10.70;99.90;;;;;;5092491;28;20237;-74
2024/02/10 01:55:39;;;;;;;16.43;10.83;;;10.70;99.90;;;;;;5092561;28;20174;-74
2024/02/10 01:58:06;;;;;;;12.63;10.20;;;10.70;99.90;;;;;;5092319;28;20246;-74
2024/02/10 02:00:32;;;;;;;16.13;10.90;;;10.70;99.90;;;;;;5073066;28;20174;-75
2024/02/10 02:03:01;;;;;;;11.70;9.80;;;10.70;99.90;;;;;;5072029;28;20201;-74
2024/02/10 02:05:32;;;;;;;12.37;9.40;;;10.70;99.90;;;;;;5072856;28;20208;-74
2024/02/10 02:07:59;;;;;;;12.47;9.67;;;10.60;99.90;;;;;;5076304;28;20182;-74
2024/02/10 02:10:25;;;;;;;15.00;9.97;;;10.70;99.90;;;;;;5087687;28;20224;-74
2024/02/10 02:12:53;;;;;;;11.53;9.47;;;10.60;99.90;;;;;;5080330;28;20185;-74
2024/02/10 02:15:20;;;;;;;13.13;9.50;;;10.60;99.90;;;;;;5092357;28;20553;-74
2024/02/10 02:17:47;;;;;;;12.57;9.30;;;10.60;99.90;;;;;;5092318;28;20604;-74
2024/02/10 02:20:13;;;;;;;10.60;9.50;;;10.60;99.90;;;;;;5091774;28;20228;-74
2024/02/10 02:22:49;;;;;;;11.03;9.07;;;10.50;99.90;;;;;;5090050;28;20257;-74
2024/02/10 02:25:16;;;;;;;10.37;9.27;;;10.50;99.90;;;;;;5091837;28;20565;-74
2024/02/10 02:27:42;;;;;;;9.40;8.50;;;10.40;99.90;;;;;;5091998;28;20181;-74
2024/02/10 02:30:08;;;;;;;10.23;9.23;;;10.40;99.90;;;;;;5084552;28;20182;-74
2024/02/10 02:32:36;;;;;;;10.10;9.03;;;10.40;99.90;;;;;;5071673;28;20170;-74
2024/02/10 02:35:09;;;;;;;11.73;9.20;;;10.30;99.90;;;;;;5086441;28;20530;-74
2024/02/10 02:37:42;;;;;;;9.80;8.43;;;10.30;99.90;;;;;;5091795;28;20166;-74
2024/02/10 02:40:13;;;;;;;10.40;8.83;;;10.20;99.90;;;;;;5089172;28;20536;-75
2024/02/10 02:42:39;;;;;;;10.87;9.73;;;10.10;99.90;;;;;;5091749;28;20173;-73
2024/02/10 02:45:10;;;;;;;10.33;8.90;;;10.10;99.90;;;;;;5091823;28;20176;-74
2024/02/10 02:47:36;;;;;;;10.50;9.07;;;10.10;99.90;;;;;;5091755;28;20165;-74
2024/02/10 02:50:10;;;;;;;10.23;9.07;;;10.10;99.90;;;;;;5091773;28;20256;-73
2024/02/10 02:52:37;;;;;;;10.67;9.57;;;10.10;99.90;;;;;;5091418;28;20197;-74
2024/02/10 02:55:04;;;;;;;11.80;10.37;;;10.00;99.90;;;;;;5081489;28;20174;-74
2024/02/10 02:57:33;;;;;;;12.63;9.90;;;10.00;99.90;;;;;;5072530;28;20181;-74
2024/02/10 03:00:00;;;;;;;12.33;11.00;;;10.00;99.90;;;;;;5071167;28;20162;-74
2024/02/10 03:02:26;;;;;;;11.43;10.23;;;10.00;99.90;;;;;;5071065;28;20162;-74
2024/02/10 03:04:51;;;;;;;12.43;10.03;;;10.00;99.90;;;;;;5071339;28;20162;-74
2024/02/10 03:07:17;;;;;;;11.03;8.87;;;9.90;99.90;;;;;;5071148;28;20213;-74
2024/02/10 03:09:44;;;;;;;12.67;8.63;;;9.80;99.90;;;;;;5087370;28;20197;-74
2024/02/10 03:12:11;;;;;;;9.53;8.60;;;9.80;99.90;;;;;;5089702;28;20161;-74
2024/02/10 03:14:38;;;;;;;10.53;9.53;;;9.70;99.90;;;;;;5071571;28;20658;-74
2024/02/10 03:17:07;;;;;;;10.67;9.03;;;9.70;99.90;;;;;;5071088;28;20170;-74
2024/02/10 03:19:36;;;;;;;9.40;8.53;;;9.60;99.90;;;;;;5071280;28;20206;-74
2024/02/10 03:22:03;;;;;;;10.33;9.23;;;9.50;99.90;;;;;;5070964;28;20677;-74
2024/02/10 03:24:32;;;;;;;10.43;9.33;;;9.50;99.90;;;;;;5071386;28;20166;-73
2024/02/10 03:26:58;;;;;;;9.43;8.40;;;9.40;99.90;;;;;;5072870;28;20233;-74
2024/02/10 03:29:23;;;;;;;11.30;8.67;;;9.40;99.90;;;;;;5083162;28;20193;-73
2024/02/10 03:31:49;;;;;;;10.53;9.43;;;9.30;99.90;;;;;;5093228;28;20219;-74
2024/02/10 03:34:15;;;;;;;11.33;9.50;;;9.30;99.90;;;;;;5090774;28;20630;-74
2024/02/10 03:36:41;;;;;;;11.57;9.20;;;9.20;99.90;;;;;;5091287;28;20253;-74
2024/02/10 03:39:07;;;;;;;12.40;10.23;;;9.20;99.90;;;;;;5084746;28;20636;-74
2024/02/10 03:41:33;;;;;;;10.33;9.33;;;9.20;99.90;;;;;;5076442;28;20184;-74
2024/02/10 03:44:00;;;;;;;9.83;8.93;;;9.20;99.90;;;;;;5074503;28;20269;-74
2024/02/10 03:46:26;;;;;;;11.80;9.83;;;9.10;99.90;;;;;;5070908;28;20289;-74
2024/02/10 03:48:52;;;;;;;10.57;9.57;;;9.10;99.90;;;;;;5070564;28;20282;-74
2024/02/10 03:51:18;;;;;;;10.90;9.53;;;9.00;99.90;;;;;;5071154;28;20166;-74
2024/02/10 03:53:43;;;;;;;9.90;9.00;;;9.00;99.90;;;;;;5074434;28;20174;-74
2024/02/10 03:56:12;;;;;;;10.90;9.67;;;9.00;99.90;;;;;;5056383;28;20227;-74
2024/02/10 03:58:41;;;;;;;10.87;9.87;;;9.00;99.90;;;;;;5089683;28;20288;-74
2024/02/10 04:01:13;;;;;;;11.97;9.73;;;8.90;99.90;;;;;;5094204;28;20214;-74
2024/02/10 04:03:39;;;;;;;11.87;9.93;;;8.80;99.90;;;;;;5094822;28;20166;-73
2024/02/10 04:06:06;;;;;;;11.67;10.47;;;8.80;99.90;;;;;;5094674;28;20197;-74
2024/02/10 04:08:32;;;;;;;12.47;11.10;;;8.80;99.90;;;;;;5094487;28;20206;-74
2024/02/10 04:10:58;;;;;;;11.50;10.50;;;8.70;99.90;;;;;;5093121;28;20249;-74
2024/02/10 04:13:23;;;;;;;12.10;10.77;;;8.70;99.90;;;;;;5056646;28;20550;-74
2024/02/10 04:15:49;;;;;;;11.37;10.17;;;8.70;99.90;;;;;;5075364;28;20184;-74
2024/02/10 04:18:14;;;;;;;12.07;10.03;;;8.60;99.90;;;;;;5094248;28;20197;-74
2024/02/10 04:20:44;;;;;;;12.70;11.40;;;8.60;99.90;;;;;;5094221;28;20174;-73
2024/02/10 04:23:11;;;;;;;11.20;10.10;;;8.60;99.90;;;;;;5094042;28;20176;-73
2024/02/10 04:25:39;;;;;;;11.80;10.63;;;8.60;99.90;;;;;;5094215;28;20288;-73
2024/02/10 04:28:06;;;;;;;12.13;10.77;;;8.60;99.90;;;;;;5077284;28;20255;-73
2024/02/10 04:30:32;;;;;;;12.93;10.20;;;8.60;99.90;;;;;;5073629;28;20235;-73
2024/02/10 04:32:57;;;;;;;13.33;10.70;;;8.60;99.90;;;;;;5073621;28;20162;-73
2024/02/10 04:35:25;;;;;;;11.57;10.37;;;8.60;99.90;;;;;;5073269;28;20193;-73
2024/02/10 04:37:55;;;;;;;15.87;11.17;;;8.60;99.90;;;;;;5073562;28;20201;-73
2024/02/10 04:40:24;;;;;;;15.20;12.20;;;8.50;99.90;;;;;;5074654;28;20650;-73
2024/02/10 04:42:53;;;;;;;12.17;10.97;;;8.40;99.90;;;;;;5093787;28;20165;-73
2024/02/10 04:45:24;;;;;;;13.30;10.87;;;8.40;99.90;;;;;;5093671;28;20205;-73
2024/02/10 04:47:51;;;;;;;14.10;11.50;;;8.40;99.90;;;;;;5093812;28;20670;-73
2024/02/10 04:50:17;;;;;;;13.97;11.57;;;8.30;99.90;;;;;;5093517;28;20162;-73
2024/02/10 04:52:43;;;;;;;12.20;11.03;;;8.30;99.90;;;;;;5093913;28;20218;-73
2024/02/10 04:55:09;;;;;;;16.97;11.90;;;8.20;99.90;;;;;;5092046;28;20701;-73
2024/02/10 04:57:35;;;;;;;13.87;11.70;;;8.20;99.90;;;;;;5093550;28;20165;-73
2024/02/10 05:00:07;;;;;;;14.20;12.80;;;8.20;99.90;;;;;;5093431;28;20254;-73
2024/02/10 05:02:32;;;;;;;14.47;10.80;;;8.20;99.90;;;;;;5092706;28;20166;-73
2024/02/10 05:04:58;;;;;;;15.60;12.30;;;8.10;99.90;;;;;;5092880;28;20503;-73
2024/02/10 05:07:24;;;;;;;14.47;12.80;;;8.10;99.90;;;;;;5093338;28;20234;-73
2024/02/10 05:09:49;;;;;;;19.83;13.67;;;8.10;99.90;;;;;;5088952;28;20265;-73
2024/02/10 05:12:15;;;;;;;16.83;12.80;;;8.20;99.90;;;;;;5090734;28;20197;-73
2024/02/10 05:14:40;;;;;;;15.63;12.87;;;8.20;99.90;;;;;;5093161;28;20201;-74
2024/02/10 05:17:06;;;;;;;14.33;12.07;;;8.30;99.90;;;;;;5092825;28;20185;-74
2024/02/10 05:19:33;;;;;;;15.50;12.10;;;8.30;99.90;;;;;;5084485;28;20197;-73
2024/02/10 05:21:59;;;;;;;16.07;13.50;;;8.30;99.90;;;;;;5072730;28;20631;-74
2024/02/10 05:24:25;;;;;;;14.43;12.93;;;8.30;99.90;;;;;;5072899;28;20225;-74
2024/02/10 05:26:50;;;;;;;15.90;12.63;;;8.30;99.90;;;;;;5080892;28;20197;-74
2024/02/10 05:29:18;;;;;;;17.13;12.83;;;8.30;99.90;;;;;;5077300;28;20221;-74
2024/02/10 05:31:47;;;;;;;13.47;12.07;;;8.30;99.90;;;;;;5072503;28;20245;-74
2024/02/10 05:34:18;;;;;;;14.80;12.13;;;8.20;99.90;;;;;;5072835;28;20208;-73
2024/02/10 05:36:44;;;;;;;15.87;12.60;;;8.20;99.90;;;;;;5072839;28;20182;-74
2024/02/10 05:39:09;;;;;;;15.77;13.00;;;8.20;99.90;;;;;;5072650;28;20217;-73
2024/02/10 05:41:36;;;;;;;13.80;12.27;;;8.20;99.90;;;;;;5054670;28;20658;-74
2024/02/10 05:44:02;;;;;;;17.40;12.53;;;8.20;99.90;;;;;;5083198;28;20310;-74
2024/02/10 05:46:28;;;;;;;15.17;12.10;;;8.20;99.90;;;;;;5092532;28;20717;-74
2024/02/10 05:48:54;;;;;;;13.23;11.87;;;8.20;99.90;;;;;;5092929;28;20566;-74
2024/02/10 05:51:23;;;;;;;14.20;12.10;;;8.20;99.90;;;;;;5092373;28;20536;-74
2024/02/10 05:53:49;;;;;;;18.47;13.37;;;8.20;99.90;;;;;;5092666;28;20177;-74
2024/02/10 05:56:15;;;;;;;18.13;12.97;;;8.20;99.90;;;;;;5074327;28;20174;-74
2024/02/10 05:58:42;;;;;;;17.13;13.07;;;8.20;99.90;;;;;;5083616;28;20200;-74
2024/02/10 06:01:10;;;;;;;15.57;12.40;;;8.20;99.90;;;;;;5071670;28;20581;-74
2024/02/10 06:03:36;;;;;;;15.37;13.03;;;8.20;99.90;;;;;;5072097;28;20625;-74
2024/02/10 06:06:05;;;;;;;16.63;12.40;;;8.10;99.90;;;;;;5071996;28;20675;-74
2024/02/10 06:08:31;;;;;;;19.30;12.77;;;8.10;99.90;;;;;;5071838;28;20188;-74
2024/02/10 06:10:58;;;;;;;18.43;13.37;;;8.10;99.90;;;;;;5071581;28;20162;-74
2024/02/10 06:13:27;;;;;;;17.27;13.33;;;8.10;99.90;;;;;;5084060;28;20162;-74
2024/02/10 06:15:54;;;;;;;16.40;13.17;;;8.10;99.90;;;;;;5092751;28;20166;-74
2024/02/10 06:18:23;;;;;;;21.37;13.20;;;8.10;99.90;;;;;;5071812;28;20266;-74
2024/02/10 06:20:48;;;;;;;14.80;13.23;;;8.00;99.90;;;;;;5071263;28;20162;-74
2024/02/10 06:23:16;;;;;;;15.87;13.13;;;8.00;99.90;;;;;;5059365;28;20204;-74
2024/02/10 06:25:41;;;;;;;20.23;13.30;;;8.00;99.90;;;;;;5091776;28;20196;-74
2024/02/10 06:28:07;;;;;;;20.17;12.73;;;8.00;99.90;;;;;;5090195;28;20190;-74
2024/02/10 06:30:33;;;;;;;15.27;12.77;;;8.00;99.90;;;;;;5091159;28;20181;-74
2024/02/10 06:32:59;;;;;;;17.50;13.97;;;8.00;99.90;;;;;;5091573;28;20165;-75
2024/02/10 06:35:25;;;;;;;18.17;13.57;;;7.90;99.90;;;;;;5091430;28;20170;-74
2024/02/10 06:37:50;;;;;;;20.90;14.17;;;8.00;99.90;;;;;;5091508;28;20209;-75
2024/02/10 06:40:17;;;;;;;19.97;13.80;;;8.00;99.90;;;;;;5091413;28;20532;-74
2024/02/10 06:42:46;;;;;;;18.07;12.97;;;7.90;99.90;;;;;;5089804;28;20574;-74
2024/02/10 06:45:14;;;;;;;22.30;13.97;;;7.90;99.90;;;;;;5087351;28;20242;-74
2024/02/10 06:47:44;;;;;;;16.13;12.87;;;7.80;99.90;;;;;;5076835;28;20196;-74
2024/02/10 06:50:14;;;;;;;19.63;14.33;;;7.80;99.90;;;;;;5070140;28;20242;-75
2024/02/10 06:52:41;;;;;;;18.37;13.40;;;7.80;99.90;;;;;;5050811;28;20257;-75
2024/02/10 06:55:07;;;;;;;17.03;12.93;;;7.70;99.90;;;;;;5050800;28;20636;-75
2024/02/10 06:57:33;;;;;;;18.13;13.50;;;7.70;99.90;;;;;;5051135;28;20202;-76
2024/02/10 07:00:03;;;;;;;14.97;12.57;;;7.80;99.90;;;;;;5057979;28;20213;-75
2024/02/10 07:02:29;;;;;;;19.33;13.30;;;7.80;99.90;;;;;;5091080;28;20162;-75
2024/02/10 07:04:55;;;;;;;13.27;11.67;;;7.70;99.90;;;;;;5072871;28;20252;-75
2024/02/10 07:07:21;;;;;;;15.87;13.27;;;7.70;99.90;;;;;;5090642;28;20200;-75
2024/02/10 07:09:47;;;;;;;13.67;12.27;;;7.80;99.90;;;;;;5089246;28;20661;-76
2024/02/10 07:12:13;;;;;;;16.13;12.50;;;7.80;99.90;;;;;;5089115;28;20248;-75
2024/02/10 07:14:38;;;;;;;15.20;13.60;;;7.80;99.90;;;;;;5090981;28;20161;-75
2024/02/10 07:17:04;;;;;;;18.77;13.20;;;7.80;99.90;;;;;;5090928;28;20177;-75
2024/02/10 07:19:35;;;;;;;15.97;13.60;;;7.90;99.90;;;;;;5090887;28;20216;-75
2024/02/10 07:22:02;;;;;;;20.70;12.83;;;7.90;99.90;;;;;;5090834;28;20166;-75
2024/02/10 07:24:27;;;;;;;15.40;13.57;;;8.00;99.90;;;;;;5090846;28;20172;-75
2024/02/10 07:26:56;;;;;;;20.13;13.60;;;8.00;99.90;;;;;;5091423;28;20193;-75
2024/02/10 07:29:23;;;;;;;15.53;12.80;;;8.10;99.90;;;;;;5074299;28;20198;-75
2024/02/10 07:31:49;;;;;;;16.07;12.80;;;8.20;99.90;;;;;;5074425;28;20166;-75
2024/02/10 07:34:14;;;;;;;17.93;13.80;;;8.30;99.90;;;;;;5074782;28;20193;-75
2024/02/10 07:36:40;;;;;;;18.67;13.70;;;8.40;99.90;;;;;;5075564;28;20196;-75
2024/02/10 07:39:06;;;;;;;15.33;12.63;;;8.50;99.90;;;;;;5074938;28;20585;-75
2024/02/10 07:41:34;;;;;;;15.83;12.27;;;8.50;99.90;;;;;;5086024;28;20182;-75
2024/02/10 07:44:02;;;;;;;16.23;13.03;;;8.60;99.90;;;;;;5094622;28;20180;-75
2024/02/10 07:46:32;;;;;;;16.63;13.30;;;8.70;99.90;;;;;;5094624;28;20204;-75
2024/02/10 07:49:01;;;;;;;18.87;13.93;;;8.80;99.90;;;;;;5094541;28;20238;-75
2024/02/10 07:51:29;;;;;;;15.13;12.70;;;8.90;99.90;;;;;;5094402;28;20161;-74
2024/02/10 07:53:56;;;;;;;16.87;13.03;;;9.00;99.90;;;;;;5094611;28;20173;-74
2024/02/10 07:56:22;;;;;;;19.20;13.40;;;9.10;99.90;;;;;;5094254;28;20180;-75
2024/02/10 07:58:48;;;;;;;15.00;13.40;;;9.20;99.90;;;;;;5094389;28;20678;-74
2024/02/10 08:01:14;;;;;;;14.40;12.57;;;9.30;99.90;;;;;;5093996;28;20173;-75
2024/02/10 08:03:41;;;;;;;20.00;13.97;;;9.50;99.90;;;;;;5094418;28;20165;-75
2024/02/10 08:06:07;;;;;;;19.17;14.43;;;9.80;99.90;;;;;;5094306;28;20342;-75
2024/02/10 08:08:33;;;;;;;16.07;13.60;;;10.00;99.90;;;;;;5090291;28;20269;-75
2024/02/10 08:10:59;;;;;;;17.90;13.30;;;10.40;99.90;;;;;;5073861;28;20335;-74
2024/02/10 08:13:25;;;;;;;15.03;12.63;;;10.70;99.90;;;;;;5073939;28;20249;-76
2024/02/10 08:15:52;;;;;;;12.10;10.80;;;11.00;99.90;;;;;;5073926;28;20702;-74
2024/02/10 08:18:18;;;;;;;12.00;10.47;;;11.10;99.90;;;;;;5086336;28;20327;-74
2024/02/10 08:20:45;;;;;;;11.83;10.00;;;11.20;99.90;;;;;;5075912;28;20181;-75
2024/02/10 08:23:12;;;;;;;12.10;10.50;;;11.20;99.90;;;;;;5093762;28;20227;-75
2024/02/10 08:25:38;;;;;;;10.50;9.40;;;11.30;99.90;;;;;;5075613;28;20729;-75
2024/02/10 08:28:06;;;;;;;11.20;10.00;;;11.30;99.90;;;;;;5093940;28;20726;-75
2024/02/10 08:30:33;;;;;;;10.33;9.30;;;11.40;99.90;;;;;;5093511;28;20166;-75
2024/02/10 08:33:00;;;;;;;8.80;8.00;;;11.40;99.90;;;;;;5081422;28;20254;-75
2024/02/10 08:35:28;;;;;;;9.30;7.90;;;11.30;99.90;;;;;;5076422;28;20228;-75
2024/02/10 08:37:55;;;;;;;10.17;9.03;;;11.30;99.90;;;;;;5092413;28;20243;-75
2024/02/10 08:40:20;;;;;;;9.63;8.53;;;11.40;99.90;;;;;;5093272;28;20177;-76
2024/02/10 08:42:53;;;;;;;10.13;9.13;;;11.50;99.90;;;;;;5093761;28;20170;-75
2024/02/10 08:45:18;;;;;;;10.07;8.20;;;11.70;99.90;;;;;;5075124;28;20173;-75
2024/02/10 08:47:45;;;;;;;9.60;7.53;;;11.80;99.90;;;;;;5093515;28;20284;-75
2024/02/10 08:50:11;;;;;;;8.60;7.57;;;11.80;99.90;;;;;;5090198;28;20587;-75
2024/02/10 08:52:37;;;;;;;8.70;7.90;;;11.90;99.90;;;;;;5072924;28;20174;-75
2024/02/10 08:55:05;;;;;;;8.93;8.03;;;11.90;99.90;;;;;;5073163;28;20215;-75
2024/02/10 08:57:31;;;;;;;8.63;7.83;;;12.00;99.90;;;;;;5081626;28;20680;-75
2024/02/10 08:59:56;;;;;;;10.37;8.93;;;12.10;99.90;;;;;;5093735;28;20169;-76
2024/02/10 09:02:22;;;;;;;10.70;9.70;;;12.20;99.90;;;;;;5093264;28;20257;-75
2024/02/10 09:04:49;;;;;;;8.60;7.70;;;12.40;99.90;;;;;;5078354;28;20189;-76
2024/02/10 09:07:18;;;;;;;8.13;7.43;;;12.60;99.90;;;;;;5071928;28;20678;-76
2024/02/10 09:09:45;;;;;;;7.17;6.53;;;12.80;99.90;;;;;;5083789;28;20209;-75
2024/02/10 09:12:16;;;;;;;8.40;6.80;;;13.00;99.90;;;;;;5071173;28;20677;-75
2024/02/10 09:14:42;;;;;;;6.97;6.30;;;13.20;99.90;;;;;;5072498;28;20235;-76
2024/02/10 09:17:07;;;;;;;8.23;7.53;;;13.40;99.90;;;;;;5072561;28;20170;-75
2024/02/10 09:19:35;;;;;;;7.43;5.67;;;13.60;99.90;;;;;;5071840;28;20186;-75
2024/02/10 09:22:03;;;;;;;6.40;5.60;;;13.60;99.90;;;;;;5072321;28;20201;-75
2024/02/10 09:24:28;;;;;;;4.90;4.53;;;13.60;99.90;;;;;;5072336;28;20193;-75
2024/02/10 09:26:58;;;;;;;5.13;4.67;;;13.80;99.90;;;;;;5072580;28;20233;-75
2024/02/10 09:29:23;;;;;;;6.20;5.33;;;13.90;99.90;;;;;;5072181;28;20201;-74
2024/02/10 09:31:52;;;;;;;6.57;5.20;;;13.90;99.90;;;;;;5078549;28;20169;-75
2024/02/10 09:34:18;;;;;;;5.00;4.60;;;13.90;99.90;;;;;;5092582;28;20177;-74
2024/02/10 09:36:44;;;;;;;6.53;5.10;;;13.90;99.90;;;;;;5092925;28;20172;-75
2024/02/10 09:39:12;;;;;;;5.83;5.27;;;13.90;99.90;;;;;;5092232;28;20209;-75
2024/02/10 09:41:39;;;;;;;5.33;4.93;;;13.70;99.90;;;;;;5092337;28;20170;-75
2024/02/10 09:44:09;;;;;;;6.73;4.90;;;13.60;99.90;;;;;;5092790;28;20580;-75
2024/02/10 09:46:36;;;;;;;4.93;4.53;;;13.50;99.90;;;;;;5090566;28;20292;-74
2024/02/10 09:49:07;;;;;;;5.03;4.63;;;13.50;99.90;;;;;;5091760;28;20715;-74
2024/02/10 09:51:42;;;;;;;5.23;4.83;;;13.50;99.90;;;;;;5091952;28;20169;-75
2024/02/10 09:54:08;;;;;;;7.43;4.93;;;13.60;99.90;;;;;;5092370;28;20351;-74
2024/02/10 09:56:35;;;;;;;5.57;5.07;;;13.60;99.90;;;;;;5092103;28;20181;-75
2024/02/10 09:59:02;;;;;;;4.90;4.50;;;13.80;99.90;;;;;;5091679;28;20193;-74
2024/02/10 10:01:32;;;;;;;4.23;3.93;;;13.90;99.90;;;;;;5071340;28;20170;-74
2024/02/10 10:04:00;;;;;;;5.47;3.97;;;14.00;99.90;;;;;;5072014;28;20475;-74
2024/02/10 10:06:26;;;;;;;4.50;4.20;;;14.10;99.90;;;;;;5071571;28;20567;-74
2024/02/10 10:08:53;;;;;;;4.93;3.90;;;14.30;99.90;;;;;;5071418;28;20190;-74
2024/02/10 10:11:20;;;;;;;6.03;4.40;;;14.40;99.90;;;;;;5085076;28;20173;-74
2024/02/10 10:13:46;;;;;;;4.57;4.17;;;14.50;99.90;;;;;;5092169;28;20197;-74
2024/02/10 10:16:12;;;;;;;4.00;3.70;;;14.60;99.90;;;;;;5092271;28;20662;-74
2024/02/10 10:18:38;;;;;;;4.37;4.07;;;14.70;99.90;;;;;;5092359;28;20200;-75
2024/02/10 10:21:10;;;;;;;4.77;3.90;;;14.80;99.90;;;;;;5074988;28;20173;-74
2024/02/10 10:23:36;;;;;;;5.90;3.30;;;14.90;99.90;;;;;;5061417;28;20182;-75
2024/02/10 10:26:03;;;;;;;4.90;4.40;;;14.90;99.90;;;;;;5078600;28;20271;-76
2024/02/10 10:28:32;;;;;;;4.43;3.93;;;14.90;99.90;;;;;;5089507;28;20224;-74
2024/02/10 10:30:58;;;;;;;4.87;3.70;;;14.90;99.90;;;;;;5097053;28;20176;-75
2024/02/10 10:33:26;;;;;;;4.53;3.90;;;15.10;99.90;;;;;;5080408;28;20180;-74
2024/02/10 10:35:54;;;;;;;5.03;4.40;;;15.30;99.90;;;;;;5098777;28;20162;-75
2024/02/10 10:38:21;;;;;;;3.73;3.43;;;15.50;99.90;;;;;;5099835;28;20683;-75
2024/02/10 10:40:51;;;;;;;3.67;3.47;;;15.80;99.90;;;;;;5080398;28;20238;-75
2024/02/10 10:43:20;;;;;;;4.30;3.90;;;16.00;99.90;;;;;;5087698;28;20197;-74
2024/02/10 10:45:46;;;;;;;3.40;3.20;;;16.20;99.90;;;;;;5098026;28;20200;-75
2024/02/10 10:48:12;;;;;;;3.80;3.50;;;16.50;99.90;;;;;;5095794;28;20188;-75
2024/02/10 10:50:38;;;;;;;3.33;3.13;;;16.80;99.90;;;;;;5092191;28;20541;-74
2024/02/10 10:53:09;;;;;;;3.93;3.57;;;17.20;99.90;;;;;;5091379;28;20166;-74
2024/02/10 10:55:48;;;;;;;3.67;3.30;;;17.20;99.90;;;;;;5086601;28;20170;-74
2024/02/10 10:58:17;;;;;;;3.97;3.57;;;17.20;99.90;;;;;;5071152;28;20178;-74
2024/02/10 11:00:46;;;;;;;3.50;3.20;;;17.30;99.90;;;;;;5070272;28;20193;-74
2024/02/10 11:03:17;;;;;;;3.40;3.20;;;17.30;99.90;;;;;;5070710;28;20173;-73
2024/02/10 11:05:43;;;;;;;4.20;3.90;;;17.20;99.90;;;;;;5071434;28;20761;-73
2024/02/10 11:08:13;;;;;;;4.00;3.70;;;17.10;99.90;;;;;;5070893;28;20232;-74
2024/02/10 11:10:44;;;;;;;6.53;3.30;;;17.00;99.90;;;;;;5074443;28;20174;-74
2024/02/10 11:13:21;;;;;;;3.77;3.40;;;17.00;99.90;;;;;;5081630;28;20322;-74
2024/02/10 11:15:59;;;;;;;3.90;3.60;;;16.80;99.90;;;;;;5095895;28;20196;-75
2024/02/10 11:18:25;;;;;;;4.37;4.07;;;16.60;99.90;;;;;;5094565;28;20204;-75
2024/02/10 11:20:50;;;;;;;4.00;3.70;;;16.50;99.90;;;;;;5093842;28;20177;-74
2024/02/10 11:23:21;;;;;;;4.50;4.20;;;16.50;99.90;;;;;;5092352;28;20172;-74
2024/02/10 11:25:47;;;;;;;4.73;4.40;;;16.40;99.90;;;;;;5091255;28;20696;-73
2024/02/10 11:28:20;;;;;;;4.53;3.97;;;16.30;99.90;;;;;;5091167;28;20186;-73
2024/02/10 11:30:47;;;;;;;4.40;4.10;;;16.10;99.90;;;;;;5093906;28;20173;-74
2024/02/10 11:33:24;;;;;;;4.83;4.43;;;16.00;99.90;;;;;;5076889;28;20548;-73
2024/02/10 11:35:53;;;;;;;4.37;3.90;;;15.80;99.90;;;;;;5091246;28;20194;-73
2024/02/10 11:38:25;;;;;;;4.90;4.10;;;15.70;99.90;;;;;;5086884;28;20631;-74
2024/02/10 11:40:50;;;;;;;3.93;3.53;;;15.70;99.90;;;;;;5073593;28;20170;-74
2024/02/10 11:43:16;;;;;;;4.50;4.20;;;15.60;99.90;;;;;;5073618;28;20175;-74
2024/02/10 11:45:45;;;;;;;4.27;3.97;;;15.60;99.90;;;;;;5074206;28;20206;-76
2024/02/10 11:48:11;;;;;;;4.33;3.93;;;15.70;99.90;;;;;;5074608;28;20190;-74
2024/02/10 11:50:45;;;;;;;4.17;3.77;;;15.70;99.90;;;;;;5073597;28;20241;-75
2024/02/10 11:53:14;;;;;;;4.20;3.70;;;15.80;99.90;;;;;;5075465;28;20231;-74
2024/02/10 11:55:48;;;;;;;4.00;3.70;;;15.80;99.90;;;;;;5073631;28;20685;-74
2024/02/10 11:58:18;;;;;;;4.07;3.77;;;15.90;99.90;;;;;;5076099;28;20234;-74
2024/02/10 12:00:45;;;;;;;5.30;3.80;;;15.80;99.90;;;;;;5074310;28;20181;-74
2024/02/10 12:03:19;;;;;;;4.33;3.90;;;15.70;99.90;;;;;;5079507;28;20177;-73
2024/02/10 12:05:46;;;;;;;4.57;3.93;;;15.80;99.90;;;;;;5094726;28;20193;-74
2024/02/10 12:08:12;;;;;;;4.17;3.77;;;15.80;99.90;;;;;;5096225;28;20189;-75
2024/02/10 12:10:42;;;;;;;4.17;3.63;;;15.60;99.90;;;;;;5096264;28;20162;-74
2024/02/10 12:13:10;;;;;;;4.80;4.07;;;15.70;99.90;;;;;;5099995;28;20660;-74
2024/02/10 12:15:40;;;;;;;3.90;3.60;;;15.70;99.90;;;;;;5101783;28;20177;-74
2024/02/10 12:18:07;;;;;;;4.00;3.67;;;15.60;99.90;;;;;;5098968;28;20224;-75
2024/02/10 12:20:39;;;;;;;4.40;4.00;;;15.60;99.90;;;;;;5081377;28;20180;-74
2024/02/10 12:23:05;;;;;;;4.37;4.07;;;15.40;99.90;;;;;;5101251;28;20208;-74
2024/02/10 12:25:32;;;;;;;4.03;3.73;;;15.30;99.90;;;;;;5100776;28;20165;-73
2024/02/10 12:27:58;;;;;;;4.17;3.87;;;15.30;99.90;;;;;;5102953;28;20185;-75
2024/02/10 12:30:23;;;;;;;4.03;3.63;;;15.20;99.90;;;;;;5103122;28;20248;-75
2024/02/10 12:32:51;;;;;;;4.20;3.90;;;15.20;99.90;;;;;;5074381;28;20199;-74
2024/02/10 12:35:19;;;;;;;4.40;4.00;;;15.20;99.90;;;;;;5079602;28;20166;-75
2024/02/10 12:37:49;;;;;;;4.10;3.80;;;15.10;99.90;;;;;;5079033;28;20263;-73